Time;durP1;ratioP1;P1;durP2;ratioP2;P2;SDS_P1;SDS_P2;PMS_P1;PMS_P2;Temp;Humidity;BMP_temperature;BMP_pressure;BME280_temperature;BME280_humidity;BME280_pressure;Samples;Min_cycle;Max_cycle;Signal;HPM_P1;HPM_P2
2022/04/10 08:06:26;;;;;;;;;;;;;;;5.58;66.17;97352.44;4239186;27;10533;-65
2022/04/10 08:08:27;;;;;;;;;;;;;;;5.68;66.48;97356.63;4213287;28;5830;-65
2022/04/10 08:10:29;;;;;;;;;;;;;;;5.71;66.13;97353.72;4226764;28;5781;-64
2022/04/10 08:12:31;;;;;;;;;;;;;;;5.62;66.43;97362.47;4229293;27;5909;-64
2022/04/10 08:14:34;;;;;;;;;;;;;;;5.76;65.86;97351.44;4227416;27;5798;-64
2022/04/10 08:16:35;;;;;;;;;;;;;;;5.97;65.72;97356.44;4228247;28;5096;-64
2022/04/10 08:18:37;;;;;;;;;;;;;;;6.09;64.87;97359.66;4221668;28;5786;-65
2022/04/10 08:20:38;;;;;;;;;;;;;;;6.12;64.90;97364.63;4227091;28;5774;-63
2022/04/10 08:22:41;;;;;;;;;;;;;;;6.13;64.29;97358.41;4223816;28;5758;-64
2022/04/10 08:24:42;;;;;;;;;;;;;;;5.80;63.77;97362.50;4226760;28;5785;-64
2022/04/10 08:26:44;;;;;;;;;;;;;;;5.94;64.70;97363.78;4220934;27;5917;-64
2022/04/10 08:28:46;;;;;;;;;;;;;;;6.07;63.96;97369.47;4230657;27;5769;-64
2022/04/10 08:30:48;;;;;;;;;;;;;;;6.20;63.19;97369.91;4227193;28;5777;-64
2022/04/10 08:32:49;;;;;;;;;;;;;;;6.10;63.32;97366.56;4223273;28;5726;-64
2022/04/10 08:34:52;;;;;;;;;;;;;;;6.14;63.09;97365.28;4225916;28;5797;-64
2022/04/10 08:36:54;;;;;;;;;;;;;;;6.19;62.52;97363.03;4227028;28;5774;-64
2022/04/10 08:38:56;;;;;;;;;;;;;;;6.11;62.19;97352.44;4223408;28;5773;-64
2022/04/10 08:41:00;;;;;;;;;;;;;;;6.23;62.32;97360.91;4225419;27;5777;-65
2022/04/10 08:43:02;;;;;;;;;;;;;;;6.30;61.74;97359.34;4202756;28;5855;-64
2022/04/10 08:45:06;;;;;;;;;;;;;;;6.36;61.42;97358.75;4226908;28;5741;-64
2022/04/10 08:47:08;;;;;;;;;;;;;;;6.21;60.73;97358.44;4205469;28;5878;-64
2022/04/10 08:49:09;;;;;;;;;;;;;;;6.28;61.80;97353.41;4220186;28;5833;-61
2022/04/10 08:51:11;;;;;;;;;;;;;;;6.33;61.82;97359.03;4226169;28;5830;-64
2022/04/10 08:53:14;;;;;;;;;;;;;;;6.51;61.53;97356.38;4225901;28;7768;-64
2022/04/10 08:55:16;;;;;;;;;;;;;;;6.53;61.49;97351.78;4227414;28;5896;-62
2022/04/10 08:57:18;;;;;;;;;;;;;;;6.53;61.63;97357.03;4225409;28;5770;-63
2022/04/10 08:59:20;;;;;;;;;;;;;;;6.38;61.14;97354.97;4225709;28;5782;-63
2022/04/10 09:01:22;;;;;;;;;;;;;;;6.43;61.11;97352.69;4227542;28;5829;-63
2022/04/10 09:03:24;;;;;;;;;;;;;;;6.45;61.30;97359.59;4227638;28;5774;-62
2022/04/10 09:05:26;;;;;;;;;;;;;;;6.54;61.25;97351.63;4215584;28;5807;-62
2022/04/10 09:07:28;;;;;;;;;;;;;;;6.32;60.89;97352.13;4212794;28;5824;-63
2022/04/10 09:09:34;;;;;;;;;;;;;;;6.54;61.20;97348.19;4215040;28;5809;-63
2022/04/10 09:11:39;;;;;;;;;;;;;;;6.33;60.97;97354.59;4214216;28;5929;-63
2022/04/10 09:13:47;;;;;;;;;;;;;;;6.59;61.25;97348.56;4215407;28;6419;-63
2022/04/10 09:15:49;;;;;;;;;;;;;;;6.49;60.47;97348.66;4214080;28;5855;-63
2022/04/10 09:17:54;;;;;;;;;;;;;;;6.42;60.51;97350.22;4228641;28;5740;-63
2022/04/10 09:19:58;;;;;;;;;;;;;;;6.61;60.85;97349.22;4219801;27;5799;-63
2022/04/10 09:22:38;;;;;;;;;;;;;;;6.74;60.64;97354.06;4200137;28;6423;-63
2022/04/10 09:25:04;;;;;;;;;;;;;;;6.73;60.15;97355.88;4199583;28;5807;-63
2022/04/10 09:27:06;;;;;;;;;;;;;;;6.70;60.26;97350.94;4207296;28;5777;-64
2022/04/10 09:29:08;;;;;;;;;;;;;;;6.85;60.71;97357.25;4215350;28;5790;-65
2022/04/10 09:31:33;;;;;;;;;;;;;;;6.90;60.42;97349.69;4205711;28;5769;-64
2022/04/10 09:33:48;;;;;;;;;;;;;;;6.88;59.44;97354.28;4201528;28;5792;-63
2022/04/10 09:35:49;;;;;;;;;;;;;;;6.94;59.99;97342.34;4199273;28;5767;-63
2022/04/10 09:37:56;;;;;;;;;;;;;;;7.07;60.22;97352.44;4197791;28;5839;-63
2022/04/10 09:40:24;;;;;;;;;;;;;;;7.24;59.65;97352.31;4199473;28;5803;-63
2022/04/10 09:42:32;;;;;;;;;;;;;;;7.23;59.91;97358.56;4206587;28;5803;-63
2022/04/10 09:44:50;;;;;;;;;;;;;;;7.16;59.93;97351.50;4203578;28;5822;-63
2022/04/10 09:47:00;;;;;;;;;;;;;;;7.25;59.64;97353.16;4208060;28;5759;-63
2022/04/10 09:49:12;;;;;;;;;;;;;;;7.29;60.05;97357.94;4214835;28;5756;-63
2022/04/10 09:51:13;;;;;;;;;;;;;;;7.19;59.09;97351.16;4213448;28;5703;-63
2022/04/10 09:53:15;;;;;;;;;;;;;;;7.20;59.76;97350.19;4204134;28;5713;-63
2022/04/10 09:55:37;;;;;;;;;;;;;;;7.42;60.25;97354.03;4207243;28;5826;-60
2022/04/10 09:57:52;;;;;;;;;;;;;;;7.33;60.03;97341.84;4213343;28;5883;-60
2022/04/10 09:59:55;;;;;;;;;;;;;;;7.50;60.39;97339.13;4207578;28;6472;-67
2022/04/10 10:01:57;;;;;;;;;;;;;;;7.52;60.13;97337.13;4209974;28;5098;-62
2022/04/10 10:04:00;;;;;;;;;;;;;;;7.50;60.11;97348.81;4212082;28;5832;-63
2022/04/10 10:06:03;;;;;;;;;;;;;;;7.57;59.72;97345.34;4214798;28;5856;-61
2022/04/10 10:08:06;;;;;;;;;;;;;;;7.49;59.55;97339.28;4216285;28;6352;-62
2022/04/10 10:10:08;;;;;;;;;;;;;;;7.50;59.49;97340.91;4210602;28;5791;-62
2022/04/10 10:12:10;;;;;;;;;;;;;;;7.57;60.39;97341.91;4205995;28;6489;-66
2022/04/10 10:14:12;;;;;;;;;;;;;;;7.65;60.04;97341.94;4214779;28;5738;-65
2022/04/10 10:16:14;;;;;;;;;;;;;;;7.68;60.63;97346.03;4212613;28;5696;-63
2022/04/10 10:18:18;;;;;;;;;;;;;;;7.70;59.98;97338.81;4214251;28;5766;-63
2022/04/10 10:20:21;;;;;;;;;;;;;;;7.36;60.07;97333.63;4203108;28;5716;-64
2022/04/10 10:22:22;;;;;;;;;;;;;;;7.37;60.48;97333.50;4210001;28;5850;-64
2022/04/10 10:24:27;;;;;;;;;;;;;;;7.47;59.96;97323.63;4214175;28;5687;-61
2022/04/10 10:26:50;;;;;;;;;;;;;;;7.30;59.71;97317.50;4214194;28;5817;-63
2022/04/10 10:29:16;;;;;;;;;;;;;;;7.48;60.21;97320.03;4217761;28;5663;-62
2022/04/10 10:31:58;;;;;;;;;;;;;;;7.59;60.38;97311.84;4216027;28;5761;-60
2022/04/10 10:34:06;;;;;;;;;;;;;;;7.86;59.66;97312.53;4201516;28;6464;-65
2022/04/10 10:36:09;;;;;;;;;;;;;;;7.85;59.73;97310.88;4213699;28;5754;-63
2022/04/10 10:38:18;;;;;;;;;;;;;;;7.98;59.65;97305.94;4211474;28;5892;-63
2022/04/10 10:40:21;;;;;;;;;;;;;;;8.07;59.95;97310.22;4204082;28;5766;-64
2022/04/10 10:42:23;;;;;;;;;;;;;;;8.14;59.89;97311.19;4211268;28;6109;-63
2022/04/10 10:44:25;;;;;;;;;;;;;;;8.08;59.85;97308.44;4215977;28;7429;-66
2022/04/10 10:46:33;;;;;;;;;;;;;;;8.07;59.47;97309.41;4212779;28;5755;-63
2022/04/10 10:48:37;;;;;;;;;;;;;;;7.94;59.60;97298.56;4214060;28;5667;-62
2022/04/10 10:50:39;;;;;;;;;;;;;;;7.96;59.58;97293.94;4212767;28;5791;-63
2022/04/10 10:52:41;;;;;;;;;;;;;;;7.94;60.10;97298.56;4214529;28;5868;-65
2022/04/10 10:54:51;;;;;;;;;;;;;;;7.93;60.58;97291.63;4213509;28;5687;-63
2022/04/10 10:56:53;;;;;;;;;;;;;;;7.79;60.91;97286.03;4210527;28;5787;-64
2022/04/10 10:58:56;;;;;;;;;;;;;;;7.95;60.75;97279.13;4215985;28;5734;-62
2022/04/10 11:01:04;;;;;;;;;;;;;;;8.08;60.09;97275.00;4209473;28;5789;-63
2022/04/10 11:03:09;;;;;;;;;;;;;;;8.08;59.36;97275.00;4216272;28;6562;-65
2022/04/10 11:05:31;;;;;;;;;;;;;;;8.22;59.70;97278.78;4212741;28;5663;-63
2022/04/10 11:07:39;;;;;;;;;;;;;;;8.09;59.79;97271.38;4214111;28;5675;-65
2022/04/10 11:09:58;;;;;;;;;;;;;;;8.04;59.52;97270.22;4216330;28;5693;-60
2022/04/10 11:12:00;;;;;;;;;;;;;;;8.19;58.75;97271.22;4211480;28;5844;-61
2022/04/10 11:14:41;;;;;;;;;;;;;;;8.25;58.83;97270.53;4214107;28;5852;-61
2022/04/10 11:16:44;;;;;;;;;;;;;;;8.32;58.48;97273.34;4211867;28;5759;-60
2022/04/10 11:18:53;;;;;;;;;;;;;;;8.36;58.07;97266.75;4213902;28;5699;-61
2022/04/10 11:21:05;;;;;;;;;;;;;;;8.47;57.97;97263.78;4211776;28;5699;-62
2022/04/10 11:23:06;;;;;;;;;;;;;;;8.50;58.56;97255.56;4213403;28;5675;-61
2022/04/10 11:25:09;;;;;;;;;;;;;;;8.47;58.00;97247.97;4215408;28;5842;-63
2022/04/10 11:27:13;;;;;;;;;;;;;;;8.59;57.78;97251.88;4212518;28;5685;-61
2022/04/10 11:29:20;;;;;;;;;;;;;;;8.62;58.36;97251.56;4214570;28;5758;-63
2022/04/10 11:31:44;;;;;;;;;;;;;;;8.79;57.81;97251.50;4209311;28;5855;-62
2022/04/10 11:33:51;;;;;;;;;;;;;;;8.64;56.99;97244.31;4211763;28;6401;-63
2022/04/10 11:35:57;;;;;;;;;;;;;;;8.80;56.80;97253.16;4212991;28;6853;-61
2022/04/10 11:38:00;;;;;;;;;;;;;;;8.62;56.98;97246.31;4214040;28;5691;-61
2022/04/10 11:40:02;;;;;;;;;;;;;;;8.73;57.13;97250.38;4215524;28;5863;-61
2022/04/10 11:42:07;;;;;;;;;;;;;;;8.68;56.83;97245.59;4207373;28;5894;-65
2022/04/10 11:44:09;;;;;;;;;;;;;;;8.78;56.78;97240.13;4212634;28;5831;-63
2022/04/10 11:46:11;;;;;;;;;;;;;;;8.87;56.71;97239.13;4214024;28;5907;-63
2022/04/10 11:48:13;;;;;;;;;;;;;;;8.88;56.02;97238.13;4214405;28;5829;-63
2022/04/10 11:50:17;;;;;;;;;;;;;;;8.58;56.39;97233.63;4214365;28;5822;-63
2022/04/10 11:52:19;;;;;;;;;;;;;;;8.72;56.84;97231.13;4213440;28;6352;-62
2022/04/10 11:54:25;;;;;;;;;;;;;;;8.72;56.85;97225.00;4215038;28;5688;-63
2022/04/10 11:56:27;;;;;;;;;;;;;;;8.86;56.63;97221.66;4213331;28;5683;-64
2022/04/10 11:58:35;;;;;;;;;;;;;;;8.91;56.18;97219.31;4211037;28;5815;-64
2022/04/10 12:00:37;;;;;;;;;;;;;;;9.02;56.16;97215.47;4210888;28;5834;-65
2022/04/10 12:02:39;;;;;;;;;;;;;;;8.99;56.00;97218.47;4212981;28;5687;-64
2022/04/10 12:04:42;;;;;;;;;;;;;;;8.99;56.66;97223.75;4216501;28;5642;-62
2022/04/10 12:06:44;;;;;;;;;;;;;;;8.82;57.35;97219.50;4214418;28;5849;-63
2022/04/10 12:08:48;;;;;;;;;;;;;;;8.71;56.73;97218.06;4213824;28;5703;-64
2022/04/10 12:10:54;;;;;;;;;;;;;;;8.90;57.56;97217.66;4211127;28;5777;-65
2022/04/10 12:12:58;;;;;;;;;;;;;;;9.08;57.03;97214.78;4214610;28;5815;-68
2022/04/10 12:15:00;;;;;;;;;;;;;;;9.15;56.48;97214.91;4215046;28;5762;-63
2022/04/10 12:17:02;;;;;;;;;;;;;;;8.97;56.26;97212.53;4206956;28;5684;-62
2022/04/10 12:19:03;;;;;;;;;;;;;;;9.15;57.06;97210.44;4214843;28;5671;-66
2022/04/10 12:21:05;;;;;;;;;;;;;;;8.94;56.66;97207.59;4209024;28;5746;-63
2022/04/10 12:23:24;;;;;;;;;;;;;;;9.16;56.81;97206.00;4213749;28;5691;-63
2022/04/10 12:25:27;;;;;;;;;;;;;;;9.06;56.61;97200.97;4212440;28;5786;-64
2022/04/10 12:27:29;;;;;;;;;;;;;;;9.18;56.76;97199.56;4210212;28;5842;-64
2022/04/10 12:29:31;;;;;;;;;;;;;;;9.09;56.88;97197.97;4214626;28;5688;-65
2022/04/10 12:31:33;;;;;;;;;;;;;;;9.17;56.50;97200.53;4212533;28;5679;-67
2022/04/10 12:33:35;;;;;;;;;;;;;;;9.21;56.32;97199.22;4212405;28;5803;-66
2022/04/10 12:35:39;;;;;;;;;;;;;;;9.28;55.90;97194.88;4212830;28;5773;-63
2022/04/10 12:37:46;;;;;;;;;;;;;;;9.36;56.42;97201.09;4208176;28;5652;-63
2022/04/10 12:39:48;;;;;;;;;;;;;;;9.38;55.88;97215.75;4214325;28;5886;-62
2022/04/10 12:42:01;;;;;;;;;;;;;;;9.32;56.19;97211.19;4213792;28;5822;-63
2022/04/10 12:44:05;;;;;;;;;;;;;;;9.51;55.26;97204.59;4214861;28;5678;-62
2022/04/10 12:46:11;;;;;;;;;;;;;;;9.51;56.44;97200.19;4217496;28;5880;-62
2022/04/10 12:48:20;;;;;;;;;;;;;;;9.58;56.70;97201.09;4216398;28;5695;-61
2022/04/10 12:50:24;;;;;;;;;;;;;;;9.60;55.55;97193.81;4213208;28;5676;-63
2022/04/10 12:52:27;;;;;;;;;;;;;;;9.58;54.95;97208.19;4208259;28;5749;-63
2022/04/10 12:54:35;;;;;;;;;;;;;;;9.53;55.09;97205.28;4218426;28;5762;-63
2022/04/10 12:56:37;;;;;;;;;;;;;;;9.57;54.95;97198.63;4213704;28;5764;-61
2022/04/10 12:58:47;;;;;;;;;;;;;;;9.49;56.01;97199.50;4219205;28;5675;-75
2022/04/10 13:00:49;;;;;;;;;;;;;;;9.44;56.09;97198.41;4208577;28;5768;-63
2022/04/10 13:02:51;;;;;;;;;;;;;;;9.50;55.48;97201.16;4214526;28;5691;-62
2022/04/10 13:05:13;;;;;;;;;;;;;;;9.53;55.10;97182.34;4211939;28;5854;-63
2022/04/10 13:07:16;;;;;;;;;;;;;;;9.64;55.54;97186.38;4214361;28;5734;-62
2022/04/10 13:09:18;;;;;;;;;;;;;;;9.72;54.68;97191.56;4214078;28;5794;-62
2022/04/10 13:11:22;;;;;;;;;;;;;;;9.82;54.27;97192.16;4217055;28;5114;-62
2022/04/10 13:13:57;;;;;;;;;;;;;;;9.87;53.23;97187.16;4209536;28;5790;-61
2022/04/10 13:16:10;;;;;;;;;;;;;;;9.88;52.98;97183.53;4217987;28;5823;-62
2022/04/10 13:18:11;;;;;;;;;;;;;;;9.78;54.26;97180.31;4217622;28;7728;-62
2022/04/10 13:20:13;;;;;;;;;;;;;;;9.69;54.57;97184.00;4217981;28;5680;-61
2022/04/10 13:22:15;;;;;;;;;;;;;;;9.85;54.38;97175.97;4216535;28;5726;-64
2022/04/10 13:24:17;;;;;;;;;;;;;;;10.01;53.45;97182.09;4217964;28;5738;-62
2022/04/10 13:26:28;;;;;;;;;;;;;;;9.87;53.38;97171.31;4217144;28;5689;-62
2022/04/10 13:28:30;;;;;;;;;;;;;;;9.96;53.45;97174.69;4215964;28;5660;-65
2022/04/10 13:30:32;;;;;;;;;;;;;;;10.00;54.08;97168.06;4211665;28;5687;-73
2022/04/10 13:32:34;;;;;;;;;;;;;;;9.96;52.66;97171.22;4216947;28;5912;-68
2022/04/10 13:34:36;;;;;;;;;;;;;;;9.99;53.45;97170.88;4217548;28;5803;-65
2022/04/10 13:36:37;;;;;;;;;;;;;;;10.05;52.98;97164.88;4217541;28;5763;-65
2022/04/10 13:38:39;;;;;;;;;;;;;;;10.05;52.01;97162.22;4216711;28;5786;-64
2022/04/10 13:40:41;;;;;;;;;;;;;;;10.05;52.90;97160.41;4211396;28;5831;-64
2022/04/10 13:42:43;;;;;;;;;;;;;;;10.10;51.06;97159.88;4213833;28;5787;-64
2022/04/10 13:44:46;;;;;;;;;;;;;;;10.03;52.34;97156.31;4215260;28;5789;-64
2022/04/10 13:46:49;;;;;;;;;;;;;;;10.04;51.41;97148.19;4211506;28;6069;-64
2022/04/10 13:48:50;;;;;;;;;;;;;;;10.14;51.15;97150.56;4213315;28;6974;-64
2022/04/10 13:50:52;;;;;;;;;;;;;;;10.16;51.39;97156.50;4212985;28;6536;-64
2022/04/10 13:52:55;;;;;;;;;;;;;;;10.18;51.29;97149.19;4213672;28;5112;-65
2022/04/10 13:54:57;;;;;;;;;;;;;;;10.23;49.88;97144.25;4214366;28;7721;-65
2022/04/10 13:56:58;;;;;;;;;;;;;;;10.12;49.63;97145.47;4211952;28;5844;-68
2022/04/10 13:59:00;;;;;;;;;;;;;;;10.11;49.91;97135.91;4213267;28;6038;-90
2022/04/10 14:01:03;;;;;;;;;;;;;;;10.05;50.24;97135.81;4212427;28;5755;-68
2022/04/10 14:03:05;;;;;;;;;;;;;;;10.13;51.21;97135.72;4194074;28;5963;-64
2022/04/10 14:05:08;;;;;;;;;;;;;;;10.06;50.02;97132.16;4211075;28;5276;-63
2022/04/10 14:07:10;;;;;;;;;;;;;;;10.11;50.21;97138.56;4213383;28;7770;-63
2022/04/10 14:09:12;;;;;;;;;;;;;;;10.19;51.31;97129.69;4213444;28;5807;-62
2022/04/10 14:11:13;;;;;;;;;;;;;;;10.25;50.53;97133.50;4210889;28;5771;-68
2022/04/10 14:13:15;;;;;;;;;;;;;;;10.25;51.94;97134.31;4213694;28;5815;-63
2022/04/10 14:15:17;;;;;;;;;;;;;;;10.35;52.53;97121.63;4213897;28;5886;-65
2022/04/10 14:17:19;;;;;;;;;;;;;;;10.40;51.93;97124.53;4212191;28;5822;-65
2022/04/10 14:19:20;;;;;;;;;;;;;;;10.42;52.11;97130.47;4213080;28;5766;-66
2022/04/10 14:21:22;;;;;;;;;;;;;;;10.47;52.82;97117.53;4213661;28;5782;-67
2022/04/10 14:23:24;;;;;;;;;;;;;;;10.57;52.70;97124.34;4214022;28;5832;-62
2022/04/10 14:25:25;;;;;;;;;;;;;;;10.60;51.57;97116.03;4212070;28;5105;-62
2022/04/10 14:27:27;;;;;;;;;;;;;;;10.53;50.34;97120.41;4210143;28;5782;-61
2022/04/10 14:29:29;;;;;;;;;;;;;;;10.59;50.63;97114.41;4211070;28;5792;-63
2022/04/10 14:31:31;;;;;;;;;;;;;;;10.53;50.96;97110.66;4206905;28;6853;-63
2022/04/10 14:33:34;;;;;;;;;;;;;;;10.46;50.73;97115.88;4207901;28;7066;-63
2022/04/10 14:35:35;;;;;;;;;;;;;;;10.44;51.52;97112.63;4212233;28;5798;-63
2022/04/10 14:37:37;;;;;;;;;;;;;;;10.52;51.06;97102.91;4216000;28;5766;-63
2022/04/10 14:39:39;;;;;;;;;;;;;;;10.63;51.42;97105.09;4213488;28;5774;-64
2022/04/10 14:41:43;;;;;;;;;;;;;;;10.66;51.60;97110.03;4210750;28;5790;-66
2022/04/10 14:43:47;;;;;;;;;;;;;;;10.68;50.73;97102.72;4212078;28;5790;-65
2022/04/10 14:45:49;;;;;;;;;;;;;;;10.69;50.44;97099.06;4214056;28;5766;-63
2022/04/10 14:47:51;;;;;;;;;;;;;;;10.69;50.67;97097.25;4213387;28;5770;-64
2022/04/10 14:49:53;;;;;;;;;;;;;;;10.68;50.65;97098.25;4208729;28;5758;-65
2022/04/10 14:51:55;;;;;;;;;;;;;;;10.70;50.60;97095.41;4214566;28;6230;-65
2022/04/10 14:53:57;;;;;;;;;;;;;;;10.75;51.13;97090.38;4214401;28;5833;-63
2022/04/10 14:55:58;;;;;;;;;;;;;;;10.77;50.82;97091.84;4214094;28;5766;-65
2022/04/10 14:58:00;;;;;;;;;;;;;;;10.78;50.11;97090.03;4210851;28;5845;-63
2022/04/10 15:00:03;;;;;;;;;;;;;;;10.72;49.92;97082.81;4212967;28;5750;-66
2022/04/10 15:02:05;;;;;;;;;;;;;;;10.63;49.20;97086.59;4211679;28;5915;-64
2022/04/10 15:04:09;;;;;;;;;;;;;;;10.61;49.23;97083.31;4206783;28;5774;-64
2022/04/10 15:06:11;;;;;;;;;;;;;;;10.55;49.42;97084.06;4210171;28;5751;-63
2022/04/10 15:08:13;;;;;;;;;;;;;;;10.54;49.54;97085.06;4214051;28;5863;-64
2022/04/10 15:10:14;;;;;;;;;;;;;;;10.62;51.56;97077.00;4214039;28;5117;-63
2022/04/10 15:12:16;;;;;;;;;;;;;;;10.67;50.30;97074.66;4213626;28;5870;-63
2022/04/10 15:14:18;;;;;;;;;;;;;;;10.69;50.49;97075.28;4195613;28;6650;-63
2022/04/10 15:16:19;;;;;;;;;;;;;;;10.74;51.04;97064.94;4203392;28;5774;-63
2022/04/10 15:18:22;;;;;;;;;;;;;;;10.62;51.24;97069.09;4214573;28;5739;-63
2022/04/10 15:20:24;;;;;;;;;;;;;;;10.74;50.86;97067.59;4205768;28;5772;-62
2022/04/10 15:22:26;;;;;;;;;;;;;;;10.72;51.13;97067.78;4213762;28;6003;-62
2022/04/10 15:24:27;;;;;;;;;;;;;;;10.76;50.97;97058.47;4212918;28;7092;-64
2022/04/10 15:26:29;;;;;;;;;;;;;;;10.77;50.03;97062.75;4196011;28;5835;-64
2022/04/10 15:28:32;;;;;;;;;;;;;;;10.76;49.79;97058.47;4213160;28;5799;-64
2022/04/10 15:30:34;;;;;;;;;;;;;;;10.77;49.80;97056.66;4212587;28;5758;-62
2022/04/10 15:32:36;;;;;;;;;;;;;;;10.78;49.92;97053.00;4214190;28;5766;-62
2022/04/10 15:34:38;;;;;;;;;;;;;;;10.82;50.17;97043.69;4213766;28;5774;-63
2022/04/10 15:36:41;;;;;;;;;;;;;;;10.88;50.30;97045.59;4210564;28;5771;-64
2022/04/10 15:38:43;;;;;;;;;;;;;;;10.92;49.94;97046.81;4214037;28;5774;-63
2022/04/10 15:40:45;;;;;;;;;;;;;;;10.88;49.10;97045.59;4213177;28;5767;-64
2022/04/10 15:42:46;;;;;;;;;;;;;;;10.78;49.69;97039.78;4210768;28;5747;-63
2022/04/10 15:44:48;;;;;;;;;;;;;;;10.77;49.61;97041.59;4212253;28;5786;-65
2022/04/10 15:46:51;;;;;;;;;;;;;;;10.81;49.73;97035.94;4211767;28;5776;-64
2022/04/10 15:48:53;;;;;;;;;;;;;;;10.83;49.29;97036.56;4213716;28;6447;-64
2022/04/10 15:50:54;;;;;;;;;;;;;;;10.75;48.69;97035.66;4211346;28;5799;-63
2022/04/10 15:52:56;;;;;;;;;;;;;;;10.71;49.79;97028.31;4213058;28;5743;-62
2022/04/10 15:54:58;;;;;;;;;;;;;;;10.71;49.51;97034.41;4213996;28;5772;-65
2022/04/10 15:57:00;;;;;;;;;;;;;;;10.76;49.58;97026.75;4210608;28;6258;-63
2022/04/10 15:59:01;;;;;;;;;;;;;;;10.85;49.95;97021.31;4209759;28;5758;-64
2022/04/10 16:01:03;;;;;;;;;;;;;;;10.85;50.32;97019.47;4212077;28;5747;-65
2022/04/10 16:03:05;;;;;;;;;;;;;;;10.93;50.49;97015.91;4213169;28;5812;-64
2022/04/10 16:05:07;;;;;;;;;;;;;;;10.94;48.80;97012.25;4211169;28;5790;-63
2022/04/10 16:07:09;;;;;;;;;;;;;;;10.97;50.21;97011.88;4211348;28;5767;-63
2022/04/10 16:09:11;;;;;;;;;;;;;;;10.98;49.61;97003.72;4209804;28;5906;-62
2022/04/10 16:11:12;;;;;;;;;;;;;;;10.99;49.76;97008.03;4212860;28;5841;-62
2022/04/10 16:13:14;;;;;;;;;;;;;;;10.99;50.13;96997.47;4210848;28;5766;-63
2022/04/10 16:15:16;;;;;;;;;;;;;;;10.86;49.18;97001.78;4213080;28;5849;-62
2022/04/10 16:17:20;;;;;;;;;;;;;;;10.85;48.71;96998.31;4216665;28;5766;-62
2022/04/10 16:19:21;;;;;;;;;;;;;;;10.96;49.64;96997.00;4214065;28;5988;-62
2022/04/10 16:21:24;;;;;;;;;;;;;;;11.01;49.89;96989.31;4215634;28;5766;-62
2022/04/10 16:23:25;;;;;;;;;;;;;;;11.00;50.56;96985.06;4213127;28;5751;-62
2022/04/10 16:25:27;;;;;;;;;;;;;;;11.07;50.58;96991.19;4212665;28;5810;-62
2022/04/10 16:30:07;;;;;;;;;;;;;;;11.07;51.15;96985.91;4210374;28;5790;-63
2022/04/10 16:32:10;;;;;;;;;;;;;;;11.02;51.17;96988.31;4211880;28;5761;-62
2022/04/10 16:34:20;;;;;;;;;;;;;;;10.96;50.80;96989.06;4214155;28;6445;-62
2022/04/10 16:36:22;;;;;;;;;;;;;;;10.74;50.46;96989.06;4214280;28;6503;-61
2022/04/10 16:38:24;;;;;;;;;;;;;;;10.70;51.87;96981.72;4214259;28;5785;-62
2022/04/10 16:40:28;;;;;;;;;;;;;;;10.76;52.44;96986.28;4212457;28;5126;-62
2022/04/10 16:42:35;;;;;;;;;;;;;;;10.88;52.39;96981.28;4213412;28;5770;-62
2022/04/10 16:44:36;;;;;;;;;;;;;;;10.94;52.64;96986.63;4201636;28;6466;-62
2022/04/10 16:46:38;;;;;;;;;;;;;;;10.87;53.11;96979.63;4198271;28;5855;-62
2022/04/10 16:48:40;;;;;;;;;;;;;;;10.74;53.77;96975.03;4204485;28;5843;-62
2022/04/10 16:50:42;;;;;;;;;;;;;;;10.58;54.17;96973.47;4212283;28;6914;-62
2022/04/10 16:52:44;;;;;;;;;;;;;;;10.70;54.11;96981.72;4216524;28;5758;-61
2022/04/10 16:54:52;;;;;;;;;;;;;;;10.72;53.69;96982.34;4212372;28;5819;-63
2022/04/10 16:56:54;;;;;;;;;;;;;;;10.77;53.77;96977.31;4206256;28;6654;-63
2022/04/10 16:58:55;;;;;;;;;;;;;;;10.76;54.75;96986.28;4212779;28;5811;-63
2022/04/10 17:00:57;;;;;;;;;;;;;;;10.61;55.73;96982.84;4211253;28;5790;-64
2022/04/10 17:03:00;;;;;;;;;;;;;;;10.70;55.98;96990.47;4209272;28;6340;-63
2022/04/10 17:05:02;;;;;;;;;;;;;;;10.68;55.95;96991.66;4200829;28;5680;-63
2022/04/10 17:07:04;;;;;;;;;;;;;;;10.68;57.04;96986.38;4216104;28;5798;-64
2022/04/10 17:09:06;;;;;;;;;;;;;;;10.50;57.63;96987.63;4213573;28;5745;-63
2022/04/10 17:11:07;;;;;;;;;;;;;;;10.48;56.31;96988.81;4212931;28;5815;-64
2022/04/10 17:13:09;;;;;;;;;;;;;;;10.38;56.09;96990.94;4214820;28;5829;-62
2022/04/10 17:15:12;;;;;;;;;;;;;;;10.32;56.94;96992.53;4212566;28;6384;-62
2022/04/10 17:17:14;;;;;;;;;;;;;;;10.37;55.90;96995.41;4207344;28;5825;-63
2022/04/10 17:19:15;;;;;;;;;;;;;;;10.35;55.72;96997.44;4201616;28;5685;-63
2022/04/10 17:21:17;;;;;;;;;;;;;;;10.21;56.17;96992.97;4210141;28;5716;-64
2022/04/10 17:23:19;;;;;;;;;;;;;;;10.20;55.64;96991.34;4212051;28;5826;-63
2022/04/10 17:25:20;;;;;;;;;;;;;;;10.23;56.09;96988.34;4206633;28;5769;-64
2022/04/10 17:27:22;;;;;;;;;;;;;;;10.26;55.28;96989.78;4209821;28;5815;-64
2022/04/10 17:29:24;;;;;;;;;;;;;;;10.16;55.70;96984.78;4215448;28;5770;-61
2022/04/10 17:31:30;;;;;;;;;;;;;;;10.13;56.04;96985.16;4207993;28;5775;-63
2022/04/10 17:33:32;;;;;;;;;;;;;;;10.14;55.40;96992.06;4208233;28;5798;-62
2022/04/10 17:35:33;;;;;;;;;;;;;;;10.10;55.50;96988.16;4210391;28;5774;-63
2022/04/10 17:37:35;;;;;;;;;;;;;;;10.10;55.72;96988.16;4210461;28;5832;-63
2022/04/10 17:39:37;;;;;;;;;;;;;;;10.14;54.84;96984.16;4204926;28;5791;-62
2022/04/10 17:41:40;;;;;;;;;;;;;;;10.06;54.64;96984.25;4209307;28;5690;-63
2022/04/10 17:43:42;;;;;;;;;;;;;;;10.01;54.31;96984.00;4210279;28;5838;-62
2022/04/10 17:45:43;;;;;;;;;;;;;;;9.96;54.31;96973.97;4215429;28;5645;-63
2022/04/10 17:47:45;;;;;;;;;;;;;;;9.91;54.01;96982.44;4205716;28;5921;-63
2022/04/10 17:49:47;;;;;;;;;;;;;;;9.95;53.87;96987.34;4212298;28;5730;-64
2022/04/10 17:51:49;;;;;;;;;;;;;;;10.03;54.01;96987.25;4214296;28;5783;-63
2022/04/10 17:53:51;;;;;;;;;;;;;;;10.00;53.23;96985.81;4211694;28;5789;-65
2022/04/10 17:55:53;;;;;;;;;;;;;;;9.91;53.13;96979.81;4206833;28;5788;-65
2022/04/10 17:57:55;;;;;;;;;;;;;;;9.88;53.42;96979.38;4210332;28;5770;-66
2022/04/10 17:59:57;;;;;;;;;;;;;;;9.91;53.14;96974.53;4213809;28;5791;-68
2022/04/10 18:01:59;;;;;;;;;;;;;;;9.90;53.34;96974.72;4201130;28;5882;-65
2022/04/10 18:04:01;;;;;;;;;;;;;;;9.91;53.48;96977.16;4210152;28;5773;-69
2022/04/10 18:06:03;;;;;;;;;;;;;;;9.87;53.32;96978.56;4212652;28;5910;-68
2022/04/10 18:08:05;;;;;;;;;;;;;;;9.91;53.26;96985.09;4207298;28;5806;-67
2022/04/10 18:10:07;;;;;;;;;;;;;;;9.95;53.02;96982.06;4208717;28;5893;-68
2022/04/10 18:12:09;;;;;;;;;;;;;;;9.93;53.33;96982.25;4209948;28;5867;-66
2022/04/10 18:14:10;;;;;;;;;;;;;;;9.97;53.15;96988.03;4208368;28;5762;-68
2022/04/10 18:16:13;;;;;;;;;;;;;;;10.02;53.77;96989.09;4213966;28;5790;-68
2022/04/10 18:18:14;;;;;;;;;;;;;;;10.01;54.18;96994.56;4213020;28;5850;-68
2022/04/10 18:20:16;;;;;;;;;;;;;;;9.85;54.09;96988.47;4204933;28;5848;-70
2022/04/10 18:22:18;;;;;;;;;;;;;;;9.56;54.91;96985.84;4212352;28;5741;-71
2022/04/10 18:24:20;;;;;;;;;;;;;;;9.74;55.01;96988.09;4212727;28;5733;-69
2022/04/10 18:26:22;;;;;;;;;;;;;;;9.82;55.25;96983.53;4212690;28;5779;-64
2022/04/10 18:28:24;;;;;;;;;;;;;;;9.85;55.37;96980.56;4210099;28;5789;-64
2022/04/10 18:30:30;;;;;;;;;;;;;;;9.88;55.01;96979.38;4213894;28;5788;-68
2022/04/10 18:32:33;;;;;;;;;;;;;;;9.87;55.26;96980.38;4199809;28;5787;-64
2022/04/10 18:34:35;;;;;;;;;;;;;;;9.88;55.04;96985.47;4211060;28;5766;-79
2022/04/10 18:36:36;;;;;;;;;;;;;;;9.85;55.28;96980.56;4216508;28;5766;-78
2022/04/10 18:38:38;;;;;;;;;;;;;;;9.84;55.15;96981.53;4212110;28;5778;-78
2022/04/10 18:40:40;;;;;;;;;;;;;;;9.83;55.02;96987.00;4204421;28;5704;-78
2022/04/10 18:42:42;;;;;;;;;;;;;;;9.80;55.20;96988.19;4214367;28;5774;-79
2022/04/10 18:44:44;;;;;;;;;;;;;;;9.77;54.87;96987.75;4210495;28;6523;-79
2022/04/10 18:46:49;;;;;;;;;;;;;;;9.76;55.25;96994.03;4215336;28;5679;-78
2022/04/10 18:51:11;;;;;;;;;;;;;;;9.71;54.34;96994.56;4201010;28;5815;-80
2022/04/10 18:53:15;;;;;;;;;;;;;;;9.41;54.31;96990.31;4215331;28;5790;-78
2022/04/10 18:55:17;;;;;;;;;;;;;;;9.50;55.00;96992.66;4212244;28;6475;-79
2022/04/10 18:57:19;;;;;;;;;;;;;;;9.51;55.19;96993.47;4215387;28;5790;-78
2022/04/10 18:59:21;;;;;;;;;;;;;;;9.57;55.11;96990.13;4202009;28;5783;-78
2022/04/10 19:01:22;;;;;;;;;;;;;;;9.56;54.76;96993.75;4207027;28;5947;-78
2022/04/10 19:03:24;;;;;;;;;;;;;;;9.61;54.68;96991.38;4202620;28;5821;-85
2022/04/10 19:05:27;;;;;;;;;;;;;;;9.33;53.92;96992.00;4217516;28;5773;-76
2022/04/10 19:07:28;;;;;;;;;;;;;;;9.23;55.03;96996.72;4214606;28;5745;-73
2022/04/10 19:09:30;;;;;;;;;;;;;;;9.46;54.99;97001.94;4214072;28;5838;-74